sensor_id;sensor_type;location;lat;lon;timestamp;P1;durP1;ratioP1;P2;durP2;ratioP2
37383;SDS011;23258;49.718;11.082;2023-11-18T00:01:56;7.80;;;7.00;;
37383;SDS011;23258;49.718;11.082;2023-11-18T00:04:26;7.80;;;6.70;;
37383;SDS011;23258;49.718;11.082;2023-11-18T00:06:55;7.47;;;6.67;;
37383;SDS011;23258;49.718;11.082;2023-11-18T00:09:26;7.50;;;6.57;;
37383;SDS011;23258;49.718;11.082;2023-11-18T00:11:56;8.77;;;7.00;;
37383;SDS011;23258;49.718;11.082;2023-11-18T00:14:28;8.13;;;7.33;;
37383;SDS011;23258;49.718;11.082;2023-11-18T00:16:58;9.30;;;6.80;;
37383;SDS011;23258;49.718;11.082;2023-11-18T00:19:29;9.57;;;7.43;;
37383;SDS011;23258;49.718;11.082;2023-11-18T00:22:00;7.43;;;6.73;;
37383;SDS011;23258;49.718;11.082;2023-11-18T00:24:29;7.43;;;6.73;;
37383;SDS011;23258;49.718;11.082;2023-11-18T00:27:01;7.80;;;6.90;;
37383;SDS011;23258;49.718;11.082;2023-11-18T00:29:35;7.13;;;6.43;;
37383;SDS011;23258;49.718;11.082;2023-11-18T00:32:05;9.10;;;7.00;;
37383;SDS011;23258;49.718;11.082;2023-11-18T00:34:35;6.83;;;6.23;;
37383;SDS011;23258;49.718;11.082;2023-11-18T00:37:05;9.60;;;5.67;;
37383;SDS011;23258;49.718;11.082;2023-11-18T00:39:34;6.87;;;6.27;;
37383;SDS011;23258;49.718;11.082;2023-11-18T00:42:04;6.50;;;5.90;;
37383;SDS011;23258;49.718;11.082;2023-11-18T00:44:36;6.07;;;5.47;;
37383;SDS011;23258;49.718;11.082;2023-11-18T00:47:06;6.27;;;5.53;;
37383;SDS011;23258;49.718;11.082;2023-11-18T00:49:36;5.27;;;4.67;;
37383;SDS011;23258;49.718;11.082;2023-11-18T00:52:06;5.53;;;5.03;;
37383;SDS011;23258;49.718;11.082;2023-11-18T00:54:36;6.07;;;5.40;;
37383;SDS011;23258;49.718;11.082;2023-11-18T00:57:05;6.03;;;5.10;;
37383;SDS011;23258;49.718;11.082;2023-11-18T00:59:38;6.50;;;5.37;;
37383;SDS011;23258;49.718;11.082;2023-11-18T01:02:10;5.43;;;4.87;;
37383;SDS011;23258;49.718;11.082;2023-11-18T01:04:40;6.30;;;4.90;;
37383;SDS011;23258;49.718;11.082;2023-11-18T01:07:11;5.90;;;4.87;;
37383;SDS011;23258;49.718;11.082;2023-11-18T01:09:41;4.57;;;4.17;;
37383;SDS011;23258;49.718;11.082;2023-11-18T01:12:12;4.97;;;4.47;;
37383;SDS011;23258;49.718;11.082;2023-11-18T01:14:44;5.07;;;4.30;;
37383;SDS011;23258;49.718;11.082;2023-11-18T01:17:14;4.83;;;4.33;;
37383;SDS011;23258;49.718;11.082;2023-11-18T01:19:43;4.30;;;4.00;;
37383;SDS011;23258;49.718;11.082;2023-11-18T01:22:13;4.33;;;4.03;;
37383;SDS011;23258;49.718;11.082;2023-11-18T01:24:44;4.33;;;3.93;;
37383;SDS011;23258;49.718;11.082;2023-11-18T01:27:14;4.20;;;3.80;;
37383;SDS011;23258;49.718;11.082;2023-11-18T01:29:48;4.73;;;4.03;;
37383;SDS011;23258;49.718;11.082;2023-11-18T01:32:18;5.37;;;4.60;;
37383;SDS011;23258;49.718;11.082;2023-11-18T01:34:48;4.63;;;4.23;;
37383;SDS011;23258;49.718;11.082;2023-11-18T01:37:18;4.83;;;4.33;;
37383;SDS011;23258;49.718;11.082;2023-11-18T01:39:48;5.43;;;4.47;;
37383;SDS011;23258;49.718;11.082;2023-11-18T01:42:18;4.17;;;3.80;;
37383;SDS011;23258;49.718;11.082;2023-11-18T01:44:50;5.43;;;4.90;;
37383;SDS011;23258;49.718;11.082;2023-11-18T01:47:21;4.60;;;4.20;;
37383;SDS011;23258;49.718;11.082;2023-11-18T01:49:51;5.00;;;4.60;;
37383;SDS011;23258;49.718;11.082;2023-11-18T01:52:23;6.20;;;4.33;;
37383;SDS011;23258;49.718;11.082;2023-11-18T01:54:53;5.53;;;4.97;;
37383;SDS011;23258;49.718;11.082;2023-11-18T01:57:24;4.87;;;4.50;;
37383;SDS011;23258;49.718;11.082;2023-11-18T01:59:56;5.00;;;4.60;;
37383;SDS011;23258;49.718;11.082;2023-11-18T02:02:26;6.10;;;4.73;;
37383;SDS011;23258;49.718;11.082;2023-11-18T02:04:56;6.33;;;4.67;;
37383;SDS011;23258;49.718;11.082;2023-11-18T02:07:28;6.17;;;5.53;;
37383;SDS011;23258;49.718;11.082;2023-11-18T02:09:58;5.80;;;4.93;;
37383;SDS011;23258;49.718;11.082;2023-11-18T02:12:29;5.10;;;4.60;;
37383;SDS011;23258;49.718;11.082;2023-11-18T02:15:04;6.23;;;5.37;;
37383;SDS011;23258;49.718;11.082;2023-11-18T02:17:37;5.37;;;4.70;;
37383;SDS011;23258;49.718;11.082;2023-11-18T02:20:08;4.07;;;3.77;;
37383;SDS011;23258;49.718;11.082;2023-11-18T02:22:44;6.57;;;4.60;;
37383;SDS011;23258;49.718;11.082;2023-11-18T02:25:16;5.17;;;4.67;;
37383;SDS011;23258;49.718;11.082;2023-11-18T02:27:48;5.20;;;4.70;;
37383;SDS011;23258;49.718;11.082;2023-11-18T02:30:19;5.83;;;5.07;;
37383;SDS011;23258;49.718;11.082;2023-11-18T02:32:52;4.87;;;4.37;;
37383;SDS011;23258;49.718;11.082;2023-11-18T02:35:27;5.70;;;4.40;;
37383;SDS011;23258;49.718;11.082;2023-11-18T02:37:55;5.33;;;4.83;;
37383;SDS011;23258;49.718;11.082;2023-11-18T02:40:26;5.23;;;4.73;;
37383;SDS011;23258;49.718;11.082;2023-11-18T02:43:00;4.97;;;4.47;;
37383;SDS011;23258;49.718;11.082;2023-11-18T02:45:32;5.17;;;4.67;;
37383;SDS011;23258;49.718;11.082;2023-11-18T02:48:03;5.40;;;4.90;;
37383;SDS011;23258;49.718;11.082;2023-11-18T02:50:34;4.53;;;4.20;;
37383;SDS011;23258;49.718;11.082;2023-11-18T02:53:05;7.73;;;4.77;;
37383;SDS011;23258;49.718;11.082;2023-11-18T02:55:36;7.27;;;4.57;;
37383;SDS011;23258;49.718;11.082;2023-11-18T02:58:10;5.40;;;5.00;;
37383;SDS011;23258;49.718;11.082;2023-11-18T03:00:40;5.67;;;5.17;;
37383;SDS011;23258;49.718;11.082;2023-11-18T03:03:11;4.70;;;4.33;;
37383;SDS011;23258;49.718;11.082;2023-11-18T03:05:42;5.17;;;4.77;;
37383;SDS011;23258;49.718;11.082;2023-11-18T03:08:12;5.63;;;5.07;;
37383;SDS011;23258;49.718;11.082;2023-11-18T03:10:42;5.70;;;4.97;;
37383;SDS011;23258;49.718;11.082;2023-11-18T03:13:14;6.07;;;4.87;;
37383;SDS011;23258;49.718;11.082;2023-11-18T03:15:44;4.70;;;4.30;;
37383;SDS011;23258;49.718;11.082;2023-11-18T03:18:14;4.93;;;4.53;;
37383;SDS011;23258;49.718;11.082;2023-11-18T03:20:45;4.87;;;4.47;;
37383;SDS011;23258;49.718;11.082;2023-11-18T03:23:15;4.77;;;4.37;;
37383;SDS011;23258;49.718;11.082;2023-11-18T03:25:45;4.47;;;4.07;;
37383;SDS011;23258;49.718;11.082;2023-11-18T03:28:18;5.17;;;4.67;;
37383;SDS011;23258;49.718;11.082;2023-11-18T03:30:50;5.27;;;4.80;;
37383;SDS011;23258;49.718;11.082;2023-11-18T03:33:21;5.97;;;5.00;;
37383;SDS011;23258;49.718;11.082;2023-11-18T03:35:51;5.47;;;4.97;;
37383;SDS011;23258;49.718;11.082;2023-11-18T03:38:21;5.43;;;4.40;;
37383;SDS011;23258;49.718;11.082;2023-11-18T03:40:51;5.80;;;5.17;;
37383;SDS011;23258;49.718;11.082;2023-11-18T03:43:25;5.20;;;4.80;;
37383;SDS011;23258;49.718;11.082;2023-11-18T03:45:55;5.33;;;4.73;;
37383;SDS011;23258;49.718;11.082;2023-11-18T03:48:25;5.80;;;4.67;;
37383;SDS011;23258;49.718;11.082;2023-11-18T03:50:55;5.53;;;4.93;;
37383;SDS011;23258;49.718;11.082;2023-11-18T03:53:24;6.00;;;4.70;;
37383;SDS011;23258;49.718;11.082;2023-11-18T03:55:54;5.73;;;5.23;;
37383;SDS011;23258;49.718;11.082;2023-11-18T03:58:26;5.53;;;4.97;;
37383;SDS011;23258;49.718;11.082;2023-11-18T04:00:56;5.03;;;4.53;;
37383;SDS011;23258;49.718;11.082;2023-11-18T04:03:26;4.73;;;4.33;;
37383;SDS011;23258;49.718;11.082;2023-11-18T04:05:56;5.03;;;4.63;;
37383;SDS011;23258;49.718;11.082;2023-11-18T04:08:25;4.93;;;4.23;;
37383;SDS011;23258;49.718;11.082;2023-11-18T04:10:55;4.77;;;4.13;;
37383;SDS011;23258;49.718;11.082;2023-11-18T04:13:27;5.23;;;4.10;;
37383;SDS011;23258;49.718;11.082;2023-11-18T04:15:57;5.00;;;4.50;;
37383;SDS011;23258;49.718;11.082;2023-11-18T04:18:27;5.93;;;4.47;;
37383;SDS011;23258;49.718;11.082;2023-11-18T04:20:57;6.07;;;4.13;;
37383;SDS011;23258;49.718;11.082;2023-11-18T04:23:27;5.17;;;4.70;;
37383;SDS011;23258;49.718;11.082;2023-11-18T04:25:57;8.57;;;5.13;;
37383;SDS011;23258;49.718;11.082;2023-11-18T04:28:29;5.07;;;4.67;;
37383;SDS011;23258;49.718;11.082;2023-11-18T04:30:59;4.93;;;4.50;;
37383;SDS011;23258;49.718;11.082;2023-11-18T04:33:29;5.77;;;4.67;;
37383;SDS011;23258;49.718;11.082;2023-11-18T04:36:00;5.93;;;4.93;;
37383;SDS011;23258;49.718;11.082;2023-11-18T04:38:32;5.03;;;4.53;;
37383;SDS011;23258;49.718;11.082;2023-11-18T04:41:02;4.67;;;4.27;;
37383;SDS011;23258;49.718;11.082;2023-11-18T04:43:36;4.93;;;4.53;;
37383;SDS011;23258;49.718;11.082;2023-11-18T04:46:11;4.47;;;4.07;;
37383;SDS011;23258;49.718;11.082;2023-11-18T04:48:42;5.97;;;3.87;;
37383;SDS011;23258;49.718;11.082;2023-11-18T04:51:12;4.67;;;4.27;;
37383;SDS011;23258;49.718;11.082;2023-11-18T04:53:41;4.43;;;3.90;;
37383;SDS011;23258;49.718;11.082;2023-11-18T04:56:11;3.73;;;3.53;;
37383;SDS011;23258;49.718;11.082;2023-11-18T04:58:46;3.90;;;3.60;;
37383;SDS011;23258;49.718;11.082;2023-11-18T05:01:15;7.53;;;4.30;;
37383;SDS011;23258;49.718;11.082;2023-11-18T05:03:45;4.30;;;3.90;;
37383;SDS011;23258;49.718;11.082;2023-11-18T05:06:15;4.63;;;4.17;;
37383;SDS011;23258;49.718;11.082;2023-11-18T05:08:46;4.40;;;3.90;;
37383;SDS011;23258;49.718;11.082;2023-11-18T05:11:16;4.30;;;3.90;;
37383;SDS011;23258;49.718;11.082;2023-11-18T05:13:48;4.17;;;3.87;;
37383;SDS011;23258;49.718;11.082;2023-11-18T05:16:18;6.70;;;4.43;;
37383;SDS011;23258;49.718;11.082;2023-11-18T05:18:48;4.70;;;4.20;;
37383;SDS011;23258;49.718;11.082;2023-11-18T05:21:18;5.93;;;5.10;;
37383;SDS011;23258;49.718;11.082;2023-11-18T05:23:48;4.50;;;4.10;;
37383;SDS011;23258;49.718;11.082;2023-11-18T05:26:17;5.73;;;5.13;;
37383;SDS011;23258;49.718;11.082;2023-11-18T05:28:50;4.77;;;4.30;;
37383;SDS011;23258;49.718;11.082;2023-11-18T05:31:21;4.37;;;3.97;;
37383;SDS011;23258;49.718;11.082;2023-11-18T05:33:51;5.77;;;4.00;;
37383;SDS011;23258;49.718;11.082;2023-11-18T05:36:22;4.77;;;4.37;;
37383;SDS011;23258;49.718;11.082;2023-11-18T05:38:54;4.87;;;4.47;;
37383;SDS011;23258;49.718;11.082;2023-11-18T05:41:24;4.40;;;4.00;;
37383;SDS011;23258;49.718;11.082;2023-11-18T05:44:00;7.00;;;4.60;;
37383;SDS011;23258;49.718;11.082;2023-11-18T05:46:29;4.97;;;4.47;;
37383;SDS011;23258;49.718;11.082;2023-11-18T05:49:01;3.77;;;3.47;;
37383;SDS011;23258;49.718;11.082;2023-11-18T05:51:33;4.60;;;4.13;;
37383;SDS011;23258;49.718;11.082;2023-11-18T05:54:03;5.97;;;4.37;;
37383;SDS011;23258;49.718;11.082;2023-11-18T05:56:33;4.43;;;4.10;;
37383;SDS011;23258;49.718;11.082;2023-11-18T05:59:05;5.07;;;4.67;;
37383;SDS011;23258;49.718;11.082;2023-11-18T06:01:35;5.57;;;5.00;;
37383;SDS011;23258;49.718;11.082;2023-11-18T06:04:05;4.70;;;4.30;;
37383;SDS011;23258;49.718;11.082;2023-11-18T06:06:35;4.33;;;3.93;;
37383;SDS011;23258;49.718;11.082;2023-11-18T06:09:05;5.40;;;4.67;;
37383;SDS011;23258;49.718;11.082;2023-11-18T06:11:36;4.60;;;4.20;;
37383;SDS011;23258;49.718;11.082;2023-11-18T06:14:10;6.13;;;4.90;;
37383;SDS011;23258;49.718;11.082;2023-11-18T06:16:44;4.80;;;4.23;;
37383;SDS011;23258;49.718;11.082;2023-11-18T06:19:14;4.63;;;4.23;;
37383;SDS011;23258;49.718;11.082;2023-11-18T06:21:44;5.67;;;4.80;;
37383;SDS011;23258;49.718;11.082;2023-11-18T06:24:13;5.03;;;4.60;;
37383;SDS011;23258;49.718;11.082;2023-11-18T06:26:45;5.90;;;4.73;;
37383;SDS011;23258;49.718;11.082;2023-11-18T06:29:18;5.30;;;4.90;;
37383;SDS011;23258;49.718;11.082;2023-11-18T06:31:48;6.43;;;4.23;;
37383;SDS011;23258;49.718;11.082;2023-11-18T06:34:18;5.53;;;5.03;;
37383;SDS011;23258;49.718;11.082;2023-11-18T06:36:47;4.77;;;4.37;;
37383;SDS011;23258;49.718;11.082;2023-11-18T06:39:17;6.20;;;4.70;;
37383;SDS011;23258;49.718;11.082;2023-11-18T06:41:48;4.80;;;4.13;;
37383;SDS011;23258;49.718;11.082;2023-11-18T06:44:20;6.47;;;4.30;;
37383;SDS011;23258;49.718;11.082;2023-11-18T06:46:50;4.63;;;4.10;;
37383;SDS011;23258;49.718;11.082;2023-11-18T06:49:20;4.67;;;4.27;;
37383;SDS011;23258;49.718;11.082;2023-11-18T06:51:52;5.33;;;4.33;;
37383;SDS011;23258;49.718;11.082;2023-11-18T06:54:22;4.93;;;4.43;;
37383;SDS011;23258;49.718;11.082;2023-11-18T06:56:53;4.57;;;4.17;;
37383;SDS011;23258;49.718;11.082;2023-11-18T06:59:26;4.67;;;4.27;;
37383;SDS011;23258;49.718;11.082;2023-11-18T07:01:56;5.67;;;5.13;;
37383;SDS011;23258;49.718;11.082;2023-11-18T07:04:26;5.53;;;5.03;;
37383;SDS011;23258;49.718;11.082;2023-11-18T07:06:55;6.53;;;5.40;;
37383;SDS011;23258;49.718;11.082;2023-11-18T07:09:25;7.57;;;5.23;;
37383;SDS011;23258;49.718;11.082;2023-11-18T07:11:54;4.30;;;3.97;;
37383;SDS011;23258;49.718;11.082;2023-11-18T07:14:27;3.73;;;3.43;;
37383;SDS011;23258;49.718;11.082;2023-11-18T07:16:57;6.37;;;4.30;;
37383;SDS011;23258;49.718;11.082;2023-11-18T07:19:27;4.13;;;3.83;;
37383;SDS011;23258;49.718;11.082;2023-11-18T07:21:56;4.43;;;4.03;;
37383;SDS011;23258;49.718;11.082;2023-11-18T07:24:26;5.00;;;4.03;;
37383;SDS011;23258;49.718;11.082;2023-11-18T07:26:57;4.43;;;4.10;;
37383;SDS011;23258;49.718;11.082;2023-11-18T07:29:29;5.17;;;4.67;;
37383;SDS011;23258;49.718;11.082;2023-11-18T07:31:59;4.87;;;4.40;;
37383;SDS011;23258;49.718;11.082;2023-11-18T07:34:32;5.20;;;4.80;;
37383;SDS011;23258;49.718;11.082;2023-11-18T07:37:02;5.00;;;4.50;;
37383;SDS011;23258;49.718;11.082;2023-11-18T07:39:32;4.47;;;4.07;;
37383;SDS011;23258;49.718;11.082;2023-11-18T07:42:11;5.30;;;4.17;;
37383;SDS011;23258;49.718;11.082;2023-11-18T07:44:44;5.17;;;4.67;;
37383;SDS011;23258;49.718;11.082;2023-11-18T07:47:14;5.50;;;4.47;;
37383;SDS011;23258;49.718;11.082;2023-11-18T07:49:46;5.23;;;4.70;;
37383;SDS011;23258;49.718;11.082;2023-11-18T07:52:16;6.27;;;5.67;;
37383;SDS011;23258;49.718;11.082;2023-11-18T07:54:46;6.70;;;5.77;;
37383;SDS011;23258;49.718;11.082;2023-11-18T07:57:19;8.17;;;6.23;;
37383;SDS011;23258;49.718;11.082;2023-11-18T07:59:54;9.13;;;6.23;;
37383;SDS011;23258;49.718;11.082;2023-11-18T08:02:38;7.67;;;6.63;;
37383;SDS011;23258;49.718;11.082;2023-11-18T08:05:08;9.83;;;7.20;;
37383;SDS011;23258;49.718;11.082;2023-11-18T08:07:40;9.37;;;7.13;;
37383;SDS011;23258;49.718;11.082;2023-11-18T08:10:10;10.33;;;7.80;;
37383;SDS011;23258;49.718;11.082;2023-11-18T08:12:46;9.97;;;6.60;;
37383;SDS011;23258;49.718;11.082;2023-11-18T08:15:20;9.10;;;6.27;;
37383;SDS011;23258;49.718;11.082;2023-11-18T08:17:50;5.53;;;5.03;;
37383;SDS011;23258;49.718;11.082;2023-11-18T08:20:20;8.20;;;5.13;;
37383;SDS011;23258;49.718;11.082;2023-11-18T08:22:52;4.20;;;3.13;;
37383;SDS011;23258;49.718;11.082;2023-11-18T08:25:21;3.87;;;3.57;;
37383;SDS011;23258;49.718;11.082;2023-11-18T08:27:52;3.83;;;3.53;;
37383;SDS011;23258;49.718;11.082;2023-11-18T08:30:24;3.67;;;3.33;;
37383;SDS011;23258;49.718;11.082;2023-11-18T08:32:54;3.73;;;3.43;;
37383;SDS011;23258;49.718;11.082;2023-11-18T08:35:26;3.73;;;3.43;;
37383;SDS011;23258;49.718;11.082;2023-11-18T08:37:56;4.23;;;3.93;;
37383;SDS011;23258;49.718;11.082;2023-11-18T08:40:26;4.03;;;3.73;;
37383;SDS011;23258;49.718;11.082;2023-11-18T08:42:55;4.30;;;3.90;;
37383;SDS011;23258;49.718;11.082;2023-11-18T08:45:28;4.97;;;4.53;;
37383;SDS011;23258;49.718;11.082;2023-11-18T08:48:00;4.87;;;4.37;;
37383;SDS011;23258;49.718;11.082;2023-11-18T08:50:34;5.93;;;4.77;;
37383;SDS011;23258;49.718;11.082;2023-11-18T08:53:07;3.90;;;3.63;;
37383;SDS011;23258;49.718;11.082;2023-11-18T08:55:39;5.37;;;4.83;;
37383;SDS011;23258;49.718;11.082;2023-11-18T08:58:18;4.67;;;4.23;;
37383;SDS011;23258;49.718;11.082;2023-11-18T09:01:03;4.47;;;4.17;;
37383;SDS011;23258;49.718;11.082;2023-11-18T09:03:41;4.90;;;4.45;;
37383;SDS011;23258;49.718;11.082;2023-11-18T09:06:15;4.45;;;4.15;;
37383;SDS011;23258;49.718;11.082;2023-11-18T09:08:52;5.05;;;4.05;;
37383;SDS011;23258;49.718;11.082;2023-11-18T09:11:25;6.38;;;4.00;;
37383;SDS011;23258;49.718;11.082;2023-11-18T09:13:59;7.95;;;5.00;;
37383;SDS011;23258;49.718;11.082;2023-11-18T09:16:33;7.97;;;6.68;;
37383;SDS011;23258;49.718;11.082;2023-11-18T09:19:06;5.45;;;5.05;;
37383;SDS011;23258;49.718;11.082;2023-11-18T09:21:36;5.83;;;4.97;;
37383;SDS011;23258;49.718;11.082;2023-11-18T09:24:06;6.07;;;5.00;;
37383;SDS011;23258;49.718;11.082;2023-11-18T09:26:39;5.60;;;5.10;;
37383;SDS011;23258;49.718;11.082;2023-11-18T09:29:10;5.50;;;5.00;;
37383;SDS011;23258;49.718;11.082;2023-11-18T09:31:48;6.82;;;5.25;;
37383;SDS011;23258;49.718;11.082;2023-11-18T09:34:19;7.38;;;6.22;;
37383;SDS011;23258;49.718;11.082;2023-11-18T09:36:54;8.77;;;6.85;;
37383;SDS011;23258;49.718;11.082;2023-11-18T09:39:24;9.15;;;6.20;;
37383;SDS011;23258;49.718;11.082;2023-11-18T09:42:05;7.78;;;6.25;;
37383;SDS011;23258;49.718;11.082;2023-11-18T09:44:36;6.03;;;5.53;;
37383;SDS011;23258;49.718;11.082;2023-11-18T09:47:09;5.80;;;4.95;;
37383;SDS011;23258;49.718;11.082;2023-11-18T09:49:44;5.32;;;4.82;;
37383;SDS011;23258;49.718;11.082;2023-11-18T09:52:16;5.05;;;4.55;;
37383;SDS011;23258;49.718;11.082;2023-11-18T09:54:50;5.25;;;4.75;;
37383;SDS011;23258;49.718;11.082;2023-11-18T09:57:23;11.55;;;5.55;;
37383;SDS011;23258;49.718;11.082;2023-11-18T09:59:58;7.35;;;5.53;;
37383;SDS011;23258;49.718;11.082;2023-11-18T10:02:41;6.78;;;6.07;;
37383;SDS011;23258;49.718;11.082;2023-11-18T10:05:12;5.63;;;5.13;;
37383;SDS011;23258;49.718;11.082;2023-11-18T10:07:42;6.45;;;5.72;;
37383;SDS011;23258;49.718;11.082;2023-11-18T10:10:12;6.00;;;5.50;;
37383;SDS011;23258;49.718;11.082;2023-11-18T10:12:43;6.35;;;5.75;;
37383;SDS011;23258;49.718;11.082;2023-11-18T10:15:20;8.55;;;5.50;;
37383;SDS011;23258;49.718;11.082;2023-11-18T10:17:53;6.90;;;5.03;;
37383;SDS011;23258;49.718;11.082;2023-11-18T10:23:12;5.40;;;4.88;;
37383;SDS011;23258;49.718;11.082;2023-11-18T10:25:46;5.45;;;4.97;;
37383;SDS011;23258;49.718;11.082;2023-11-18T10:28:24;5.07;;;4.57;;
37383;SDS011;23258;49.718;11.082;2023-11-18T10:30:55;8.60;;;5.28;;
37383;SDS011;23258;49.718;11.082;2023-11-18T10:33:28;5.82;;;5.05;;
37383;SDS011;23258;49.718;11.082;2023-11-18T10:35:58;6.85;;;5.40;;
37383;SDS011;23258;49.718;11.082;2023-11-18T10:38:30;5.88;;;5.18;;
37383;SDS011;23258;49.718;11.082;2023-11-18T10:41:03;6.85;;;5.43;;
37383;SDS011;23258;49.718;11.082;2023-11-18T10:43:34;6.03;;;5.53;;
37383;SDS011;23258;49.718;11.082;2023-11-18T10:46:06;7.13;;;6.15;;
37383;SDS011;23258;49.718;11.082;2023-11-18T10:48:42;12.50;;;6.13;;
37383;SDS011;23258;49.718;11.082;2023-11-18T10:51:15;9.13;;;6.65;;
37383;SDS011;23258;49.718;11.082;2023-11-18T10:53:46;6.55;;;5.70;;
37383;SDS011;23258;49.718;11.082;2023-11-18T10:56:25;6.50;;;5.50;;
37383;SDS011;23258;49.718;11.082;2023-11-18T10:58:56;6.65;;;5.97;;
37383;SDS011;23258;49.718;11.082;2023-11-18T11:01:29;6.22;;;5.72;;
37383;SDS011;23258;49.718;11.082;2023-11-18T11:04:02;6.13;;;5.63;;
37383;SDS011;23258;49.718;11.082;2023-11-18T11:06:33;6.80;;;6.20;;
37383;SDS011;23258;49.718;11.082;2023-11-18T11:09:03;7.82;;;5.88;;
37383;SDS011;23258;49.718;11.082;2023-11-18T11:11:44;6.85;;;6.15;;
37383;SDS011;23258;49.718;11.082;2023-11-18T11:14:16;6.80;;;6.10;;
37383;SDS011;23258;49.718;11.082;2023-11-18T11:16:47;6.90;;;6.20;;
37383;SDS011;23258;49.718;11.082;2023-11-18T11:19:28;6.20;;;5.65;;
37383;SDS011;23258;49.718;11.082;2023-11-18T11:22:04;6.15;;;5.55;;
37383;SDS011;23258;49.718;11.082;2023-11-18T11:24:45;6.00;;;5.50;;
37383;SDS011;23258;49.718;11.082;2023-11-18T11:27:21;7.10;;;5.88;;
37383;SDS011;23258;49.718;11.082;2023-11-18T11:29:57;7.68;;;6.40;;
37383;SDS011;23258;49.718;11.082;2023-11-18T11:32:39;6.65;;;6.05;;
37383;SDS011;23258;49.718;11.082;2023-11-18T11:35:14;6.35;;;5.85;;
37383;SDS011;23258;49.718;11.082;2023-11-18T11:37:48;8.07;;;6.43;;
37383;SDS011;23258;49.718;11.082;2023-11-18T11:40:20;7.40;;;6.55;;
37383;SDS011;23258;49.718;11.082;2023-11-18T11:42:51;9.55;;;6.43;;
37383;SDS011;23258;49.718;11.082;2023-11-18T11:45:22;8.90;;;6.25;;
37383;SDS011;23258;49.718;11.082;2023-11-18T11:47:55;7.30;;;6.60;;
37383;SDS011;23258;49.718;11.082;2023-11-18T11:50:48;8.20;;;7.15;;
37383;SDS011;23258;49.718;11.082;2023-11-18T11:53:22;7.32;;;6.63;;
37383;SDS011;23258;49.718;11.082;2023-11-18T11:55:53;7.55;;;6.82;;
37383;SDS011;23258;49.718;11.082;2023-11-18T11:58:33;7.38;;;6.60;;
37383;SDS011;23258;49.718;11.082;2023-11-18T12:01:14;8.32;;;7.25;;
37383;SDS011;23258;49.718;11.082;2023-11-18T12:03:46;8.05;;;7.28;;
37383;SDS011;23258;49.718;11.082;2023-11-18T12:06:21;9.52;;;7.88;;
37383;SDS011;23258;49.718;11.082;2023-11-18T12:08:53;7.18;;;6.47;;
37383;SDS011;23258;49.718;11.082;2023-11-18T12:11:23;7.97;;;7.07;;
37383;SDS011;23258;49.718;11.082;2023-11-18T12:14:01;7.60;;;6.65;;
37383;SDS011;23258;49.718;11.082;2023-11-18T12:19:31;8.18;;;6.72;;
37383;SDS011;23258;49.718;11.082;2023-11-18T12:22:14;8.68;;;7.28;;
37383;SDS011;23258;49.718;11.082;2023-11-18T12:27:42;7.95;;;6.90;;
37383;SDS011;23258;49.718;11.082;2023-11-18T12:33:05;8.30;;;6.93;;
37383;SDS011;23258;49.718;11.082;2023-11-18T12:35:39;7.00;;;6.35;;
37383;SDS011;23258;49.718;11.082;2023-11-18T12:38:36;10.45;;;7.53;;
37383;SDS011;23258;49.718;11.082;2023-11-18T12:41:17;9.13;;;7.18;;
37383;SDS011;23258;49.718;11.082;2023-11-18T12:43:57;8.57;;;7.60;;
37383;SDS011;23258;49.718;11.082;2023-11-18T12:49:37;8.10;;;7.15;;
37383;SDS011;23258;49.718;11.082;2023-11-18T12:52:08;9.40;;;7.72;;
37383;SDS011;23258;49.718;11.082;2023-11-18T12:54:40;7.60;;;6.82;;
37383;SDS011;23258;49.718;11.082;2023-11-18T12:57:10;7.38;;;6.68;;
37383;SDS011;23258;49.718;11.082;2023-11-18T12:59:41;7.13;;;6.47;;
37383;SDS011;23258;49.718;11.082;2023-11-18T13:02:12;8.13;;;7.05;;
37383;SDS011;23258;49.718;11.082;2023-11-18T13:04:47;8.85;;;6.82;;
37383;SDS011;23258;49.718;11.082;2023-11-18T13:07:17;7.78;;;6.57;;
37383;SDS011;23258;49.718;11.082;2023-11-18T13:09:50;7.25;;;6.55;;
37383;SDS011;23258;49.718;11.082;2023-11-18T13:12:21;7.80;;;7.00;;
37383;SDS011;23258;49.718;11.082;2023-11-18T13:14:54;7.63;;;6.63;;
37383;SDS011;23258;49.718;11.082;2023-11-18T13:17:24;8.68;;;7.55;;
37383;SDS011;23258;49.718;11.082;2023-11-18T13:19:55;6.88;;;6.30;;
37383;SDS011;23258;49.718;11.082;2023-11-18T13:22:24;7.43;;;6.50;;
37383;SDS011;23258;49.718;11.082;2023-11-18T13:25:14;7.68;;;6.88;;
37383;SDS011;23258;49.718;11.082;2023-11-18T13:27:44;7.78;;;7.03;;
37383;SDS011;23258;49.718;11.082;2023-11-18T13:30:15;7.72;;;6.72;;
37383;SDS011;23258;49.718;11.082;2023-11-18T13:32:47;8.23;;;7.00;;
37383;SDS011;23258;49.718;11.082;2023-11-18T13:35:18;7.88;;;7.05;;
37383;SDS011;23258;49.718;11.082;2023-11-18T13:37:50;8.38;;;6.97;;
37383;SDS011;23258;49.718;11.082;2023-11-18T13:40:23;8.32;;;7.43;;
37383;SDS011;23258;49.718;11.082;2023-11-18T13:43:02;7.90;;;7.20;;
37383;SDS011;23258;49.718;11.082;2023-11-18T13:45:35;7.70;;;6.90;;
37383;SDS011;23258;49.718;11.082;2023-11-18T13:48:06;7.80;;;6.88;;
37383;SDS011;23258;49.718;11.082;2023-11-18T13:50:36;8.48;;;6.63;;
37383;SDS011;23258;49.718;11.082;2023-11-18T13:53:06;6.97;;;6.30;;
37383;SDS011;23258;49.718;11.082;2023-11-18T13:55:40;9.25;;;7.15;;
37383;SDS011;23258;49.718;11.082;2023-11-18T13:58:10;8.73;;;6.82;;
37383;SDS011;23258;49.718;11.082;2023-11-18T14:00:40;8.68;;;6.68;;
37383;SDS011;23258;49.718;11.082;2023-11-18T14:03:09;7.10;;;6.28;;
37383;SDS011;23258;49.718;11.082;2023-11-18T14:05:39;7.85;;;7.03;;
37383;SDS011;23258;49.718;11.082;2023-11-18T14:08:16;9.82;;;7.93;;
37383;SDS011;23258;49.718;11.082;2023-11-18T14:10:49;9.48;;;7.30;;
37383;SDS011;23258;49.718;11.082;2023-11-18T14:13:29;10.00;;;7.22;;
37383;SDS011;23258;49.718;11.082;2023-11-18T14:16:01;7.70;;;6.90;;
37383;SDS011;23258;49.718;11.082;2023-11-18T14:18:31;8.38;;;7.32;;
37383;SDS011;23258;49.718;11.082;2023-11-18T14:21:03;9.93;;;7.30;;
37383;SDS011;23258;49.718;11.082;2023-11-18T14:23:33;8.07;;;7.28;;
37383;SDS011;23258;49.718;11.082;2023-11-18T14:26:07;8.50;;;7.35;;
37383;SDS011;23258;49.718;11.082;2023-11-18T14:28:37;7.93;;;7.13;;
37383;SDS011;23258;49.718;11.082;2023-11-18T14:31:07;9.00;;;7.68;;
37383;SDS011;23258;49.718;11.082;2023-11-18T14:33:37;9.90;;;7.50;;
37383;SDS011;23258;49.718;11.082;2023-11-18T14:36:07;9.15;;;7.97;;
37383;SDS011;23258;49.718;11.082;2023-11-18T14:38:38;8.60;;;7.47;;
37383;SDS011;23258;49.718;11.082;2023-11-18T14:41:10;8.20;;;7.38;;
37383;SDS011;23258;49.718;11.082;2023-11-18T14:43:40;8.02;;;7.25;;
37383;SDS011;23258;49.718;11.082;2023-11-18T14:46:10;9.85;;;7.65;;
37383;SDS011;23258;49.718;11.082;2023-11-18T14:48:40;8.93;;;8.02;;
37383;SDS011;23258;49.718;11.082;2023-11-18T14:51:09;11.63;;;8.15;;
37383;SDS011;23258;49.718;11.082;2023-11-18T14:53:39;12.80;;;7.78;;
37383;SDS011;23258;49.718;11.082;2023-11-18T14:56:12;9.57;;;7.72;;
37383;SDS011;23258;49.718;11.082;2023-11-18T14:58:43;9.00;;;7.50;;
37383;SDS011;23258;49.718;11.082;2023-11-18T15:01:16;10.65;;;7.75;;
37383;SDS011;23258;49.718;11.082;2023-11-18T15:03:46;12.60;;;8.20;;
37383;SDS011;23258;49.718;11.082;2023-11-18T15:06:23;9.88;;;8.43;;
37383;SDS011;23258;49.718;11.082;2023-11-18T15:08:53;9.95;;;8.82;;
37383;SDS011;23258;49.718;11.082;2023-11-18T15:11:26;9.52;;;8.07;;
37383;SDS011;23258;49.718;11.082;2023-11-18T15:13:58;9.90;;;8.57;;
37383;SDS011;23258;49.718;11.082;2023-11-18T15:16:28;8.55;;;7.28;;